sensor_id;sensor_type;location;lat;lon;timestamp;P1;durP1;ratioP1;P2;durP2;ratioP2
18822;SDS011;9540;51.550;7.980;2022-12-18T00:02:01;34.13;;;18.47;;
18822;SDS011;9540;51.550;7.980;2022-12-18T00:04:28;43.10;;;19.33;;
18822;SDS011;9540;51.550;7.980;2022-12-18T00:06:57;46.17;;;20.27;;
18822;SDS011;9540;51.550;7.980;2022-12-18T00:09:24;56.63;;;21.93;;
18822;SDS011;9540;51.550;7.980;2022-12-18T00:11:51;42.47;;;18.57;;
18822;SDS011;9540;51.550;7.980;2022-12-18T00:14:18;41.30;;;16.70;;
18822;SDS011;9540;51.550;7.980;2022-12-18T00:16:45;37.70;;;16.60;;
18822;SDS011;9540;51.550;7.980;2022-12-18T00:19:13;41.77;;;17.60;;
18822;SDS011;9540;51.550;7.980;2022-12-18T00:21:41;32.93;;;15.60;;
18822;SDS011;9540;51.550;7.980;2022-12-18T00:24:10;29.13;;;13.40;;
18822;SDS011;9540;51.550;7.980;2022-12-18T00:26:38;32.33;;;14.03;;
18822;SDS011;9540;51.550;7.980;2022-12-18T00:29:05;32.17;;;15.67;;
18822;SDS011;9540;51.550;7.980;2022-12-18T00:31:34;29.20;;;14.83;;
18822;SDS011;9540;51.550;7.980;2022-12-18T00:34:01;36.33;;;15.07;;
18822;SDS011;9540;51.550;7.980;2022-12-18T00:36:29;45.63;;;18.60;;
18822;SDS011;9540;51.550;7.980;2022-12-18T00:38:59;38.87;;;18.47;;
18822;SDS011;9540;51.550;7.980;2022-12-18T00:41:30;34.10;;;15.83;;
18822;SDS011;9540;51.550;7.980;2022-12-18T00:44:15;31.83;;;15.33;;
18822;SDS011;9540;51.550;7.980;2022-12-18T00:46:43;40.97;;;15.00;;
18822;SDS011;9540;51.550;7.980;2022-12-18T00:49:12;37.87;;;17.13;;
18822;SDS011;9540;51.550;7.980;2022-12-18T00:51:41;47.77;;;21.57;;
18822;SDS011;9540;51.550;7.980;2022-12-18T00:54:17;50.23;;;22.13;;
18822;SDS011;9540;51.550;7.980;2022-12-18T00:56:58;59.77;;;25.03;;
18822;SDS011;9540;51.550;7.980;2022-12-18T00:59:25;60.60;;;25.77;;
18822;SDS011;9540;51.550;7.980;2022-12-18T01:04:23;48.27;;;22.83;;
18822;SDS011;9540;51.550;7.980;2022-12-18T01:06:50;49.53;;;24.20;;
18822;SDS011;9540;51.550;7.980;2022-12-18T01:09:17;52.87;;;24.67;;
18822;SDS011;9540;51.550;7.980;2022-12-18T01:11:45;56.67;;;25.23;;
18822;SDS011;9540;51.550;7.980;2022-12-18T01:14:13;76.70;;;28.77;;
18822;SDS011;9540;51.550;7.980;2022-12-18T01:19:44;73.93;;;29.80;;
18822;SDS011;9540;51.550;7.980;2022-12-18T01:22:11;69.90;;;29.97;;
18822;SDS011;9540;51.550;7.980;2022-12-18T01:24:38;65.23;;;28.90;;
18822;SDS011;9540;51.550;7.980;2022-12-18T01:27:05;75.60;;;31.97;;
18822;SDS011;9540;51.550;7.980;2022-12-18T01:29:33;71.93;;;30.80;;
18822;SDS011;9540;51.550;7.980;2022-12-18T01:32:02;67.03;;;29.00;;
18822;SDS011;9540;51.550;7.980;2022-12-18T01:34:30;67.30;;;29.00;;
18822;SDS011;9540;51.550;7.980;2022-12-18T01:36:57;76.80;;;30.80;;
18822;SDS011;9540;51.550;7.980;2022-12-18T01:39:24;68.67;;;27.80;;
18822;SDS011;9540;51.550;7.980;2022-12-18T01:41:51;65.07;;;28.97;;
18822;SDS011;9540;51.550;7.980;2022-12-18T01:44:52;67.17;;;29.50;;
18822;SDS011;9540;51.550;7.980;2022-12-18T01:47:23;69.43;;;28.00;;
18822;SDS011;9540;51.550;7.980;2022-12-18T01:49:55;65.30;;;29.27;;
18822;SDS011;9540;51.550;7.980;2022-12-18T01:52:23;66.17;;;28.07;;
18822;SDS011;9540;51.550;7.980;2022-12-18T01:54:52;70.30;;;30.23;;
18822;SDS011;9540;51.550;7.980;2022-12-18T01:57:20;69.90;;;28.50;;
18822;SDS011;9540;51.550;7.980;2022-12-18T01:59:50;72.23;;;27.60;;
18822;SDS011;9540;51.550;7.980;2022-12-18T02:02:21;78.03;;;29.53;;
18822;SDS011;9540;51.550;7.980;2022-12-18T02:04:48;71.43;;;28.33;;
18822;SDS011;9540;51.550;7.980;2022-12-18T02:07:17;62.60;;;26.97;;
18822;SDS011;9540;51.550;7.980;2022-12-18T02:09:53;65.77;;;26.33;;
18822;SDS011;9540;51.550;7.980;2022-12-18T02:12:27;67.40;;;27.70;;
18822;SDS011;9540;51.550;7.980;2022-12-18T02:15:05;65.90;;;27.17;;
18822;SDS011;9540;51.550;7.980;2022-12-18T02:17:36;72.67;;;28.70;;
18822;SDS011;9540;51.550;7.980;2022-12-18T02:20:08;65.20;;;27.33;;
18822;SDS011;9540;51.550;7.980;2022-12-18T02:22:43;70.57;;;27.40;;
18822;SDS011;9540;51.550;7.980;2022-12-18T02:25:24;62.27;;;26.00;;
18822;SDS011;9540;51.550;7.980;2022-12-18T02:28:04;63.60;;;26.40;;
18822;SDS011;9540;51.550;7.980;2022-12-18T02:30:35;62.73;;;27.60;;
18822;SDS011;9540;51.550;7.980;2022-12-18T02:33:04;72.27;;;27.57;;
18822;SDS011;9540;51.550;7.980;2022-12-18T02:35:33;62.73;;;25.93;;
18822;SDS011;9540;51.550;7.980;2022-12-18T02:38:02;62.60;;;27.20;;
18822;SDS011;9540;51.550;7.980;2022-12-18T02:40:30;61.53;;;25.17;;
18822;SDS011;9540;51.550;7.980;2022-12-18T02:43:01;63.33;;;25.97;;
18822;SDS011;9540;51.550;7.980;2022-12-18T02:45:33;68.53;;;29.37;;
18822;SDS011;9540;51.550;7.980;2022-12-18T02:47:59;62.57;;;26.90;;
18822;SDS011;9540;51.550;7.980;2022-12-18T02:50:33;65.60;;;26.03;;
18822;SDS011;9540;51.550;7.980;2022-12-18T02:53:06;61.80;;;25.50;;
18822;SDS011;9540;51.550;7.980;2022-12-18T02:55:45;59.33;;;25.47;;
18822;SDS011;9540;51.550;7.980;2022-12-18T02:58:24;61.70;;;25.60;;
18822;SDS011;9540;51.550;7.980;2022-12-18T03:00:58;68.67;;;27.30;;
18822;SDS011;9540;51.550;7.980;2022-12-18T03:03:29;49.93;;;24.17;;
18822;SDS011;9540;51.550;7.980;2022-12-18T03:06:00;59.33;;;24.70;;
18822;SDS011;9540;51.550;7.980;2022-12-18T03:08:32;62.80;;;26.53;;
18822;SDS011;9540;51.550;7.980;2022-12-18T03:11:05;65.60;;;26.87;;
18822;SDS011;9540;51.550;7.980;2022-12-18T03:13:36;61.53;;;25.23;;
18822;SDS011;9540;51.550;7.980;2022-12-18T03:16:09;66.03;;;25.90;;
18822;SDS011;9540;51.550;7.980;2022-12-18T03:18:39;82.70;;;29.63;;
18822;SDS011;9540;51.550;7.980;2022-12-18T03:21:11;65.60;;;27.77;;
18822;SDS011;9540;51.550;7.980;2022-12-18T03:23:44;70.40;;;27.13;;
18822;SDS011;9540;51.550;7.980;2022-12-18T03:26:16;78.50;;;30.63;;
18822;SDS011;9540;51.550;7.980;2022-12-18T03:28:47;102.23;;;37.67;;
18822;SDS011;9540;51.550;7.980;2022-12-18T03:31:17;75.17;;;30.70;;
18822;SDS011;9540;51.550;7.980;2022-12-18T03:33:47;69.03;;;29.03;;
18822;SDS011;9540;51.550;7.980;2022-12-18T03:36:18;80.13;;;30.07;;
18822;SDS011;9540;51.550;7.980;2022-12-18T03:38:45;66.47;;;27.87;;
18822;SDS011;9540;51.550;7.980;2022-12-18T03:41:14;70.40;;;26.70;;
18822;SDS011;9540;51.550;7.980;2022-12-18T03:43:48;69.17;;;27.67;;
18822;SDS011;9540;51.550;7.980;2022-12-18T03:46:22;58.03;;;24.93;;
18822;SDS011;9540;51.550;7.980;2022-12-18T03:48:55;67.93;;;27.30;;
18822;SDS011;9540;51.550;7.980;2022-12-18T03:51:28;66.27;;;24.93;;
18822;SDS011;9540;51.550;7.980;2022-12-18T03:54:03;58.73;;;24.47;;
18822;SDS011;9540;51.550;7.980;2022-12-18T03:56:33;51.60;;;24.00;;
18822;SDS011;9540;51.550;7.980;2022-12-18T03:59:06;61.20;;;25.30;;
18822;SDS011;9540;51.550;7.980;2022-12-18T04:01:37;57.33;;;23.53;;
18822;SDS011;9540;51.550;7.980;2022-12-18T04:04:08;59.70;;;23.93;;
18822;SDS011;9540;51.550;7.980;2022-12-18T04:06:37;58.97;;;24.47;;
18822;SDS011;9540;51.550;7.980;2022-12-18T04:09:06;58.93;;;25.27;;
18822;SDS011;9540;51.550;7.980;2022-12-18T04:11:34;55.73;;;24.27;;
18822;SDS011;9540;51.550;7.980;2022-12-18T04:14:00;51.47;;;24.43;;
18822;SDS011;9540;51.550;7.980;2022-12-18T04:16:29;60.87;;;25.40;;
18822;SDS011;9540;51.550;7.980;2022-12-18T04:18:56;54.40;;;22.57;;
18822;SDS011;9540;51.550;7.980;2022-12-18T04:21:23;57.73;;;24.23;;
18822;SDS011;9540;51.550;7.980;2022-12-18T04:23:49;49.37;;;22.87;;
18822;SDS011;9540;51.550;7.980;2022-12-18T04:26:16;59.17;;;24.93;;
18822;SDS011;9540;51.550;7.980;2022-12-18T04:28:44;55.07;;;24.23;;
18822;SDS011;9540;51.550;7.980;2022-12-18T04:31:11;53.87;;;24.30;;
18822;SDS011;9540;51.550;7.980;2022-12-18T04:33:40;61.13;;;23.33;;
18822;SDS011;9540;51.550;7.980;2022-12-18T04:36:07;62.57;;;25.37;;
18822;SDS011;9540;51.550;7.980;2022-12-18T04:38:34;65.90;;;25.63;;
18822;SDS011;9540;51.550;7.980;2022-12-18T04:41:01;57.87;;;24.20;;
18822;SDS011;9540;51.550;7.980;2022-12-18T04:43:28;56.57;;;23.77;;
18822;SDS011;9540;51.550;7.980;2022-12-18T04:46:00;68.20;;;25.53;;
18822;SDS011;9540;51.550;7.980;2022-12-18T04:48:28;54.70;;;23.07;;
18822;SDS011;9540;51.550;7.980;2022-12-18T04:50:56;59.70;;;25.40;;
18822;SDS011;9540;51.550;7.980;2022-12-18T04:53:23;55.40;;;23.87;;
18822;SDS011;9540;51.550;7.980;2022-12-18T04:55:50;64.97;;;26.57;;
18822;SDS011;9540;51.550;7.980;2022-12-18T04:58:28;62.17;;;24.33;;
18822;SDS011;9540;51.550;7.980;2022-12-18T05:00:55;64.23;;;25.37;;
18822;SDS011;9540;51.550;7.980;2022-12-18T05:03:22;59.43;;;24.50;;
18822;SDS011;9540;51.550;7.980;2022-12-18T05:05:49;61.17;;;23.77;;
18822;SDS011;9540;51.550;7.980;2022-12-18T05:08:18;61.43;;;24.47;;
18822;SDS011;9540;51.550;7.980;2022-12-18T05:10:45;52.07;;;22.60;;
18822;SDS011;9540;51.550;7.980;2022-12-18T05:13:12;46.07;;;21.57;;
18822;SDS011;9540;51.550;7.980;2022-12-18T05:15:39;55.80;;;22.00;;
18822;SDS011;9540;51.550;7.980;2022-12-18T05:18:07;46.80;;;20.20;;
18822;SDS011;9540;51.550;7.980;2022-12-18T05:20:34;49.33;;;21.23;;
18822;SDS011;9540;51.550;7.980;2022-12-18T05:23:01;50.57;;;22.80;;
18822;SDS011;9540;51.550;7.980;2022-12-18T05:25:29;56.10;;;21.47;;
18822;SDS011;9540;51.550;7.980;2022-12-18T05:27:56;52.77;;;21.97;;
18822;SDS011;9540;51.550;7.980;2022-12-18T05:30:23;44.70;;;21.13;;
18822;SDS011;9540;51.550;7.980;2022-12-18T05:32:50;48.90;;;21.57;;
18822;SDS011;9540;51.550;7.980;2022-12-18T05:35:17;48.87;;;20.73;;
18822;SDS011;9540;51.550;7.980;2022-12-18T05:37:44;47.53;;;20.30;;
18822;SDS011;9540;51.550;7.980;2022-12-18T05:40:11;46.07;;;19.27;;
18822;SDS011;9540;51.550;7.980;2022-12-18T05:42:40;45.57;;;18.37;;
18822;SDS011;9540;51.550;7.980;2022-12-18T05:45:07;43.83;;;17.57;;
18822;SDS011;9540;51.550;7.980;2022-12-18T05:47:35;39.23;;;18.07;;
18822;SDS011;9540;51.550;7.980;2022-12-18T05:50:02;35.97;;;13.80;;
18822;SDS011;9540;51.550;7.980;2022-12-18T05:52:30;34.10;;;15.03;;
18822;SDS011;9540;51.550;7.980;2022-12-18T05:54:57;25.20;;;11.37;;
18822;SDS011;9540;51.550;7.980;2022-12-18T05:57:24;30.93;;;12.30;;
18822;SDS011;9540;51.550;7.980;2022-12-18T05:59:52;20.73;;;10.50;;
18822;SDS011;9540;51.550;7.980;2022-12-18T06:02:19;27.53;;;12.17;;
18822;SDS011;9540;51.550;7.980;2022-12-18T06:04:47;24.33;;;11.73;;
18822;SDS011;9540;51.550;7.980;2022-12-18T06:07:13;23.53;;;11.17;;
18822;SDS011;9540;51.550;7.980;2022-12-18T06:09:40;23.67;;;10.17;;
18822;SDS011;9540;51.550;7.980;2022-12-18T06:12:07;21.43;;;9.57;;
18822;SDS011;9540;51.550;7.980;2022-12-18T06:14:34;19.17;;;9.20;;
18822;SDS011;9540;51.550;7.980;2022-12-18T06:17:02;17.13;;;8.43;;
18822;SDS011;9540;51.550;7.980;2022-12-18T06:19:29;10.90;;;5.63;;
18822;SDS011;9540;51.550;7.980;2022-12-18T06:21:56;19.20;;;9.17;;
18822;SDS011;9540;51.550;7.980;2022-12-18T06:24:24;16.93;;;7.97;;
18822;SDS011;9540;51.550;7.980;2022-12-18T06:26:50;15.50;;;7.53;;
18822;SDS011;9540;51.550;7.980;2022-12-18T06:29:17;16.40;;;7.50;;
18822;SDS011;9540;51.550;7.980;2022-12-18T06:31:44;12.53;;;6.63;;
18822;SDS011;9540;51.550;7.980;2022-12-18T06:34:13;14.20;;;6.13;;
18822;SDS011;9540;51.550;7.980;2022-12-18T06:36:39;11.20;;;5.87;;
18822;SDS011;9540;51.550;7.980;2022-12-18T06:39:06;13.47;;;6.73;;
18822;SDS011;9540;51.550;7.980;2022-12-18T06:41:33;14.47;;;5.80;;
18822;SDS011;9540;51.550;7.980;2022-12-18T06:44:00;12.23;;;7.07;;
18822;SDS011;9540;51.550;7.980;2022-12-18T06:46:27;15.53;;;7.63;;
18822;SDS011;9540;51.550;7.980;2022-12-18T06:48:54;13.57;;;6.87;;
18822;SDS011;9540;51.550;7.980;2022-12-18T06:51:23;14.43;;;7.57;;
18822;SDS011;9540;51.550;7.980;2022-12-18T06:53:50;15.47;;;7.67;;
18822;SDS011;9540;51.550;7.980;2022-12-18T06:56:17;15.37;;;8.00;;
18822;SDS011;9540;51.550;7.980;2022-12-18T06:58:44;16.07;;;7.67;;
18822;SDS011;9540;51.550;7.980;2022-12-18T07:01:12;15.87;;;7.63;;
18822;SDS011;9540;51.550;7.980;2022-12-18T07:03:40;16.30;;;7.63;;
18822;SDS011;9540;51.550;7.980;2022-12-18T07:06:12;14.07;;;7.30;;
18822;SDS011;9540;51.550;7.980;2022-12-18T07:08:41;14.10;;;7.37;;
18822;SDS011;9540;51.550;7.980;2022-12-18T07:11:08;15.70;;;6.73;;
18822;SDS011;9540;51.550;7.980;2022-12-18T07:13:35;13.07;;;6.77;;
18822;SDS011;9540;51.550;7.980;2022-12-18T07:16:06;13.43;;;6.43;;
18822;SDS011;9540;51.550;7.980;2022-12-18T07:18:33;13.37;;;6.17;;
18822;SDS011;9540;51.550;7.980;2022-12-18T07:21:04;16.17;;;6.63;;
18822;SDS011;9540;51.550;7.980;2022-12-18T07:23:32;11.17;;;6.07;;
18822;SDS011;9540;51.550;7.980;2022-12-18T07:26:02;14.40;;;7.30;;
18822;SDS011;9540;51.550;7.980;2022-12-18T07:28:30;14.23;;;6.47;;
18822;SDS011;9540;51.550;7.980;2022-12-18T07:30:57;9.97;;;5.63;;
18822;SDS011;9540;51.550;7.980;2022-12-18T07:33:24;11.53;;;5.53;;
18822;SDS011;9540;51.550;7.980;2022-12-18T07:35:52;14.50;;;7.77;;
18822;SDS011;9540;51.550;7.980;2022-12-18T07:38:19;16.33;;;10.03;;
18822;SDS011;9540;51.550;7.980;2022-12-18T07:40:46;15.47;;;7.50;;
18822;SDS011;9540;51.550;7.980;2022-12-18T07:43:14;17.40;;;7.73;;
18822;SDS011;9540;51.550;7.980;2022-12-18T07:45:41;12.27;;;6.53;;
18822;SDS011;9540;51.550;7.980;2022-12-18T07:48:09;12.47;;;7.33;;
18822;SDS011;9540;51.550;7.980;2022-12-18T07:50:36;16.20;;;7.83;;
18822;SDS011;9540;51.550;7.980;2022-12-18T07:53:03;13.73;;;7.60;;
18822;SDS011;9540;51.550;7.980;2022-12-18T07:55:30;13.13;;;6.43;;
18822;SDS011;9540;51.550;7.980;2022-12-18T07:58:00;9.90;;;5.30;;
18822;SDS011;9540;51.550;7.980;2022-12-18T08:00:28;12.33;;;6.50;;
18822;SDS011;9540;51.550;7.980;2022-12-18T08:02:55;8.53;;;5.03;;
18822;SDS011;9540;51.550;7.980;2022-12-18T08:05:23;11.13;;;5.50;;
18822;SDS011;9540;51.550;7.980;2022-12-18T08:07:50;15.63;;;5.27;;
18822;SDS011;9540;51.550;7.980;2022-12-18T08:10:17;5.77;;;4.60;;
18822;SDS011;9540;51.550;7.980;2022-12-18T08:12:44;9.60;;;4.97;;
18822;SDS011;9540;51.550;7.980;2022-12-18T08:15:11;9.67;;;4.70;;
18822;SDS011;9540;51.550;7.980;2022-12-18T08:17:39;7.80;;;4.30;;
18822;SDS011;9540;51.550;7.980;2022-12-18T08:20:06;7.27;;;4.40;;
18822;SDS011;9540;51.550;7.980;2022-12-18T08:22:37;8.07;;;4.40;;
18822;SDS011;9540;51.550;7.980;2022-12-18T08:25:04;8.60;;;4.00;;
18822;SDS011;9540;51.550;7.980;2022-12-18T08:27:32;7.33;;;3.53;;
18822;SDS011;9540;51.550;7.980;2022-12-18T08:29:59;6.30;;;3.97;;
18822;SDS011;9540;51.550;7.980;2022-12-18T08:32:26;7.13;;;4.00;;
18822;SDS011;9540;51.550;7.980;2022-12-18T08:34:55;6.73;;;3.90;;
18822;SDS011;9540;51.550;7.980;2022-12-18T08:37:22;6.57;;;3.77;;
18822;SDS011;9540;51.550;7.980;2022-12-18T08:39:49;6.10;;;4.00;;
18822;SDS011;9540;51.550;7.980;2022-12-18T08:42:16;6.83;;;3.50;;
18822;SDS011;9540;51.550;7.980;2022-12-18T08:45:00;5.47;;;3.63;;
18822;SDS011;9540;51.550;7.980;2022-12-18T08:47:28;7.87;;;4.17;;
18822;SDS011;9540;51.550;7.980;2022-12-18T08:49:56;5.17;;;3.57;;
18822;SDS011;9540;51.550;7.980;2022-12-18T08:52:23;9.43;;;6.27;;
18822;SDS011;9540;51.550;7.980;2022-12-18T08:54:50;9.50;;;6.27;;
18822;SDS011;9540;51.550;7.980;2022-12-18T08:57:17;19.77;;;8.87;;
18822;SDS011;9540;51.550;7.980;2022-12-18T08:59:44;14.23;;;8.10;;
18822;SDS011;9540;51.550;7.980;2022-12-18T09:02:11;15.87;;;7.83;;
18822;SDS011;9540;51.550;7.980;2022-12-18T09:04:38;12.33;;;8.27;;
18822;SDS011;9540;51.550;7.980;2022-12-18T09:07:07;10.43;;;7.47;;
18822;SDS011;9540;51.550;7.980;2022-12-18T09:09:34;12.97;;;7.50;;
18822;SDS011;9540;51.550;7.980;2022-12-18T09:12:02;16.57;;;8.43;;
18822;SDS011;9540;51.550;7.980;2022-12-18T09:14:29;16.57;;;7.97;;
18822;SDS011;9540;51.550;7.980;2022-12-18T09:16:57;15.47;;;8.77;;
18822;SDS011;9540;51.550;7.980;2022-12-18T09:19:24;14.70;;;8.73;;
18822;SDS011;9540;51.550;7.980;2022-12-18T09:21:51;13.27;;;8.53;;
18822;SDS011;9540;51.550;7.980;2022-12-18T09:24:19;13.33;;;8.80;;
18822;SDS011;9540;51.550;7.980;2022-12-18T09:26:46;12.87;;;8.53;;
18822;SDS011;9540;51.550;7.980;2022-12-18T09:29:13;13.53;;;7.43;;
18822;SDS011;9540;51.550;7.980;2022-12-18T09:31:40;12.30;;;7.70;;
18822;SDS011;9540;51.550;7.980;2022-12-18T09:34:07;12.00;;;7.57;;
18822;SDS011;9540;51.550;7.980;2022-12-18T09:36:34;11.83;;;8.10;;
18822;SDS011;9540;51.550;7.980;2022-12-18T09:39:00;12.37;;;9.10;;
18822;SDS011;9540;51.550;7.980;2022-12-18T09:41:35;12.97;;;8.67;;
18822;SDS011;9540;51.550;7.980;2022-12-18T09:44:17;13.33;;;9.20;;
18822;SDS011;9540;51.550;7.980;2022-12-18T09:46:47;31.83;;;16.33;;
18822;SDS011;9540;51.550;7.980;2022-12-18T09:49:20;33.60;;;19.83;;
18822;SDS011;9540;51.550;7.980;2022-12-18T09:51:50;18.30;;;11.57;;
18822;SDS011;9540;51.550;7.980;2022-12-18T09:54:23;14.53;;;9.00;;
18822;SDS011;9540;51.550;7.980;2022-12-18T09:56:54;19.10;;;12.07;;
18822;SDS011;9540;51.550;7.980;2022-12-18T09:59:22;13.57;;;9.00;;
18822;SDS011;9540;51.550;7.980;2022-12-18T10:01:51;15.57;;;9.60;;
18822;SDS011;9540;51.550;7.980;2022-12-18T10:04:18;13.20;;;7.37;;
18822;SDS011;9540;51.550;7.980;2022-12-18T10:06:46;13.73;;;7.10;;
18822;SDS011;9540;51.550;7.980;2022-12-18T10:09:20;12.93;;;7.20;;
18822;SDS011;9540;51.550;7.980;2022-12-18T10:11:56;10.27;;;7.03;;
18822;SDS011;9540;51.550;7.980;2022-12-18T10:14:34;12.30;;;7.37;;
18822;SDS011;9540;51.550;7.980;2022-12-18T10:17:10;13.70;;;7.13;;
18822;SDS011;9540;51.550;7.980;2022-12-18T10:19:45;13.37;;;7.00;;
18822;SDS011;9540;51.550;7.980;2022-12-18T10:22:20;10.87;;;6.50;;
18822;SDS011;9540;51.550;7.980;2022-12-18T10:24:55;8.37;;;6.53;;
18822;SDS011;9540;51.550;7.980;2022-12-18T10:27:30;14.50;;;8.47;;
18822;SDS011;9540;51.550;7.980;2022-12-18T10:29:57;11.57;;;6.53;;
18822;SDS011;9540;51.550;7.980;2022-12-18T10:32:26;16.03;;;6.90;;
18822;SDS011;9540;51.550;7.980;2022-12-18T10:34:56;10.23;;;6.37;;
18822;SDS011;9540;51.550;7.980;2022-12-18T10:37:24;10.60;;;5.77;;
18822;SDS011;9540;51.550;7.980;2022-12-18T10:40:10;7.17;;;4.87;;
18822;SDS011;9540;51.550;7.980;2022-12-18T10:42:41;8.97;;;5.13;;
18822;SDS011;9540;51.550;7.980;2022-12-18T10:45:10;8.40;;;4.70;;
18822;SDS011;9540;51.550;7.980;2022-12-18T10:47:41;8.90;;;4.53;;
18822;SDS011;9540;51.550;7.980;2022-12-18T10:50:16;9.50;;;4.57;;
18822;SDS011;9540;51.550;7.980;2022-12-18T10:52:53;7.67;;;4.60;;
18822;SDS011;9540;51.550;7.980;2022-12-18T10:55:21;8.70;;;5.00;;
18822;SDS011;9540;51.550;7.980;2022-12-18T10:57:50;10.10;;;3.93;;
18822;SDS011;9540;51.550;7.980;2022-12-18T11:00:24;5.67;;;4.40;;
18822;SDS011;9540;51.550;7.980;2022-12-18T11:02:53;7.67;;;4.53;;
18822;SDS011;9540;51.550;7.980;2022-12-18T11:05:26;9.57;;;5.43;;
18822;SDS011;9540;51.550;7.980;2022-12-18T11:07:56;11.87;;;5.97;;
18822;SDS011;9540;51.550;7.980;2022-12-18T11:10:26;11.20;;;7.20;;
18822;SDS011;9540;51.550;7.980;2022-12-18T11:12:58;12.33;;;6.80;;
18822;SDS011;9540;51.550;7.980;2022-12-18T11:15:36;10.63;;;5.67;;
18822;SDS011;9540;51.550;7.980;2022-12-18T11:18:14;6.87;;;5.20;;
18822;SDS011;9540;51.550;7.980;2022-12-18T11:20:49;10.37;;;5.73;;
18822;SDS011;9540;51.550;7.980;2022-12-18T11:23:18;7.60;;;5.30;;
18822;SDS011;9540;51.550;7.980;2022-12-18T11:25:52;9.03;;;5.10;;
18822;SDS011;9540;51.550;7.980;2022-12-18T11:28:33;9.77;;;4.93;;
18822;SDS011;9540;51.550;7.980;2022-12-18T11:33:57;12.43;;;7.77;;
18822;SDS011;9540;51.550;7.980;2022-12-18T11:36:28;48.00;;;30.27;;
18822;SDS011;9540;51.550;7.980;2022-12-18T11:38:59;23.43;;;14.77;;
18822;SDS011;9540;51.550;7.980;2022-12-18T11:41:37;14.70;;;8.57;;
18822;SDS011;9540;51.550;7.980;2022-12-18T11:44:31;15.27;;;8.87;;
18822;SDS011;9540;51.550;7.980;2022-12-18T11:47:09;12.60;;;8.23;;
18822;SDS011;9540;51.550;7.980;2022-12-18T11:49:39;11.97;;;7.83;;
18822;SDS011;9540;51.550;7.980;2022-12-18T11:52:09;17.37;;;10.73;;
18822;SDS011;9540;51.550;7.980;2022-12-18T11:54:41;13.40;;;7.97;;
18822;SDS011;9540;51.550;7.980;2022-12-18T11:57:09;15.63;;;9.37;;
18822;SDS011;9540;51.550;7.980;2022-12-18T11:59:46;16.80;;;8.97;;
18822;SDS011;9540;51.550;7.980;2022-12-18T12:02:25;20.60;;;8.93;;
18822;SDS011;9540;51.550;7.980;2022-12-18T12:07:46;14.57;;;8.57;;
18822;SDS011;9540;51.550;7.980;2022-12-18T12:10:25;18.93;;;8.53;;
18822;SDS011;9540;51.550;7.980;2022-12-18T12:13:05;12.93;;;8.13;;
18822;SDS011;9540;51.550;7.980;2022-12-18T12:15:45;16.27;;;8.73;;
18822;SDS011;9540;51.550;7.980;2022-12-18T12:18:24;11.40;;;7.57;;
18822;SDS011;9540;51.550;7.980;2022-12-18T12:20:59;13.43;;;8.20;;
18822;SDS011;9540;51.550;7.980;2022-12-18T12:23:33;14.83;;;8.10;;
18822;SDS011;9540;51.550;7.980;2022-12-18T12:26:08;15.03;;;8.33;;
18822;SDS011;9540;51.550;7.980;2022-12-18T12:28:44;15.37;;;7.93;;
18822;SDS011;9540;51.550;7.980;2022-12-18T12:31:27;11.07;;;7.17;;
18822;SDS011;9540;51.550;7.980;2022-12-18T12:34:06;12.57;;;7.90;;
18822;SDS011;9540;51.550;7.980;2022-12-18T12:36:42;11.13;;;6.63;;
18822;SDS011;9540;51.550;7.980;2022-12-18T12:39:20;14.10;;;7.47;;
18822;SDS011;9540;51.550;7.980;2022-12-18T12:41:50;13.90;;;7.50;;
18822;SDS011;9540;51.550;7.980;2022-12-18T12:44:35;11.97;;;7.27;;
18822;SDS011;9540;51.550;7.980;2022-12-18T12:47:09;12.40;;;7.97;;
18822;SDS011;9540;51.550;7.980;2022-12-18T12:49:44;18.40;;;9.57;;
18822;SDS011;9540;51.550;7.980;2022-12-18T12:52:14;14.60;;;8.03;;
18822;SDS011;9540;51.550;7.980;2022-12-18T12:54:47;14.00;;;8.23;;
18822;SDS011;9540;51.550;7.980;2022-12-18T12:57:15;14.67;;;8.73;;
18822;SDS011;9540;51.550;7.980;2022-12-18T12:59:49;16.63;;;8.83;;
18822;SDS011;9540;51.550;7.980;2022-12-18T13:02:24;18.40;;;9.73;;
18822;SDS011;9540;51.550;7.980;2022-12-18T13:04:59;15.23;;;8.27;;
18822;SDS011;9540;51.550;7.980;2022-12-18T13:07:32;16.43;;;8.60;;
18822;SDS011;9540;51.550;7.980;2022-12-18T13:10:23;16.03;;;8.60;;
18822;SDS011;9540;51.550;7.980;2022-12-18T13:12:52;15.80;;;8.93;;
18822;SDS011;9540;51.550;7.980;2022-12-18T13:15:22;14.27;;;9.07;;
18822;SDS011;9540;51.550;7.980;2022-12-18T13:18:09;13.53;;;8.10;;
18822;SDS011;9540;51.550;7.980;2022-12-18T13:20:40;16.43;;;9.17;;
18822;SDS011;9540;51.550;7.980;2022-12-18T13:23:28;15.23;;;8.67;;
18822;SDS011;9540;51.550;7.980;2022-12-18T13:25:58;20.10;;;9.37;;
18822;SDS011;9540;51.550;7.980;2022-12-18T13:34:36;19.50;;;10.57;;
18822;SDS011;9540;51.550;7.980;2022-12-18T13:43:26;19.30;;;9.53;;
18822;SDS011;9540;51.550;7.980;2022-12-18T13:46:03;17.47;;;9.60;;
18822;SDS011;9540;51.550;7.980;2022-12-18T13:48:33;17.80;;;9.93;;
18822;SDS011;9540;51.550;7.980;2022-12-18T13:51:05;13.67;;;8.00;;
18822;SDS011;9540;51.550;7.980;2022-12-18T13:53:36;16.73;;;8.73;;
18822;SDS011;9540;51.550;7.980;2022-12-18T13:56:08;14.43;;;9.17;;
18822;SDS011;9540;51.550;7.980;2022-12-18T13:58:35;16.13;;;8.67;;
18822;SDS011;9540;51.550;7.980;2022-12-18T14:01:02;14.80;;;8.70;;
18822;SDS011;9540;51.550;7.980;2022-12-18T14:03:29;14.07;;;8.30;;
18822;SDS011;9540;51.550;7.980;2022-12-18T14:05:59;16.33;;;8.30;;
18822;SDS011;9540;51.550;7.980;2022-12-18T14:08:32;17.33;;;8.70;;
18822;SDS011;9540;51.550;7.980;2022-12-18T14:11:01;13.43;;;8.77;;
18822;SDS011;9540;51.550;7.980;2022-12-18T14:13:32;13.70;;;8.60;;
18822;SDS011;9540;51.550;7.980;2022-12-18T14:16:04;17.70;;;9.20;;
18822;SDS011;9540;51.550;7.980;2022-12-18T14:18:35;16.07;;;9.10;;
18822;SDS011;9540;51.550;7.980;2022-12-18T14:21:14;12.83;;;8.40;;
18822;SDS011;9540;51.550;7.980;2022-12-18T14:23:47;17.80;;;9.07;;
18822;SDS011;9540;51.550;7.980;2022-12-18T14:26:21;15.73;;;9.00;;
18822;SDS011;9540;51.550;7.980;2022-12-18T14:28:52;18.37;;;9.17;;
18822;SDS011;9540;51.550;7.980;2022-12-18T14:31:21;16.63;;;10.20;;
18822;SDS011;9540;51.550;7.980;2022-12-18T14:33:49;17.10;;;9.57;;
18822;SDS011;9540;51.550;7.980;2022-12-18T14:36:17;22.10;;;10.87;;
18822;SDS011;9540;51.550;7.980;2022-12-18T14:38:49;17.27;;;10.17;;
18822;SDS011;9540;51.550;7.980;2022-12-18T14:41:17;18.13;;;10.37;;
18822;SDS011;9540;51.550;7.980;2022-12-18T14:43:48;15.27;;;9.83;;
18822;SDS011;9540;51.550;7.980;2022-12-18T14:46:27;18.97;;;11.30;;
18822;SDS011;9540;51.550;7.980;2022-12-18T14:49:01;24.53;;;11.50;;
18822;SDS011;9540;51.550;7.980;2022-12-18T14:51:30;18.83;;;11.07;;
18822;SDS011;9540;51.550;7.980;2022-12-18T14:54:00;20.70;;;11.97;;
18822;SDS011;9540;51.550;7.980;2022-12-18T14:56:29;21.53;;;11.43;;
18822;SDS011;9540;51.550;7.980;2022-12-18T14:58:58;18.93;;;10.27;;
18822;SDS011;9540;51.550;7.980;2022-12-18T15:01:27;18.40;;;10.70;;
18822;SDS011;9540;51.550;7.980;2022-12-18T15:03:57;23.07;;;11.30;;
18822;SDS011;9540;51.550;7.980;2022-12-18T15:06:26;17.27;;;10.33;;
18822;SDS011;9540;51.550;7.980;2022-12-18T15:08:56;23.17;;;11.93;;
18822;SDS011;9540;51.550;7.980;2022-12-18T15:14:23;21.97;;;11.03;;
18822;SDS011;9540;51.550;7.980;2022-12-18T15:16:57;21.80;;;10.73;;
18822;SDS011;9540;51.550;7.980;2022-12-18T15:19:26;23.20;;;11.13;;
18822;SDS011;9540;51.550;7.980;2022-12-18T15:21:58;21.23;;;11.00;;
18822;SDS011;9540;51.550;7.980;2022-12-18T15:24:26;21.10;;;10.87;;
18822;SDS011;9540;51.550;7.980;2022-12-18T15:26:57;20.60;;;11.47;;
18822;SDS011;9540;51.550;7.980;2022-12-18T15:29:25;19.00;;;12.33;;